sensor_id;sensor_type;location;lat;lon;timestamp;temperature;humidity
14733;DHT22;7457;50.960;6.830;2023-04-16T00:00:15;7.60;95.00
14733;DHT22;7457;50.960;6.830;2023-04-16T00:02:40;7.60;95.00
14733;DHT22;7457;50.960;6.830;2023-04-16T00:05:06;7.60;95.10
14733;DHT22;7457;50.960;6.830;2023-04-16T00:07:32;7.60;95.30
14733;DHT22;7457;50.960;6.830;2023-04-16T00:09:57;7.60;95.10
14733;DHT22;7457;50.960;6.830;2023-04-16T00:12:23;7.60;95.00
14733;DHT22;7457;50.960;6.830;2023-04-16T00:14:49;7.60;95.10
14733;DHT22;7457;50.960;6.830;2023-04-16T00:17:15;7.60;95.10
14733;DHT22;7457;50.960;6.830;2023-04-16T00:19:41;7.60;95.20
14733;DHT22;7457;50.960;6.830;2023-04-16T00:22:06;7.60;95.00
14733;DHT22;7457;50.960;6.830;2023-04-16T00:24:32;7.60;95.00
14733;DHT22;7457;50.960;6.830;2023-04-16T00:26:57;7.60;95.10
14733;DHT22;7457;50.960;6.830;2023-04-16T00:29:23;7.60;95.20
14733;DHT22;7457;50.960;6.830;2023-04-16T00:31:49;7.60;95.00
14733;DHT22;7457;50.960;6.830;2023-04-16T00:34:15;7.60;95.10
14733;DHT22;7457;50.960;6.830;2023-04-16T00:36:40;7.60;95.30
14733;DHT22;7457;50.960;6.830;2023-04-16T00:39:06;7.60;95.20
14733;DHT22;7457;50.960;6.830;2023-04-16T00:41:32;7.60;95.20
14733;DHT22;7457;50.960;6.830;2023-04-16T00:43:57;7.60;95.10
14733;DHT22;7457;50.960;6.830;2023-04-16T00:46:23;7.60;95.20
14733;DHT22;7457;50.960;6.830;2023-04-16T00:48:50;7.60;95.10
14733;DHT22;7457;50.960;6.830;2023-04-16T00:51:17;7.60;95.10
14733;DHT22;7457;50.960;6.830;2023-04-16T00:53:45;7.60;95.20
14733;DHT22;7457;50.960;6.830;2023-04-16T00:56:11;7.60;95.20
14733;DHT22;7457;50.960;6.830;2023-04-16T00:58:38;7.60;95.60
14733;DHT22;7457;50.960;6.830;2023-04-16T01:01:04;7.60;95.30
14733;DHT22;7457;50.960;6.830;2023-04-16T01:03:44;7.60;95.30
14733;DHT22;7457;50.960;6.830;2023-04-16T01:06:10;7.60;95.30
14733;DHT22;7457;50.960;6.830;2023-04-16T01:08:36;7.60;95.30
14733;DHT22;7457;50.960;6.830;2023-04-16T01:11:02;7.60;95.40
14733;DHT22;7457;50.960;6.830;2023-04-16T01:13:28;7.60;95.20
14733;DHT22;7457;50.960;6.830;2023-04-16T01:15:54;7.60;95.20
14733;DHT22;7457;50.960;6.830;2023-04-16T01:18:21;7.60;95.20
14733;DHT22;7457;50.960;6.830;2023-04-16T01:20:48;7.60;95.40
14733;DHT22;7457;50.960;6.830;2023-04-16T01:23:14;7.60;95.20
14733;DHT22;7457;50.960;6.830;2023-04-16T01:25:40;7.60;95.30
14733;DHT22;7457;50.960;6.830;2023-04-16T01:28:06;7.60;95.70
14733;DHT22;7457;50.960;6.830;2023-04-16T01:30:32;7.60;95.60
14733;DHT22;7457;50.960;6.830;2023-04-16T01:32:58;7.60;95.50
14733;DHT22;7457;50.960;6.830;2023-04-16T01:35:24;7.60;95.30
14733;DHT22;7457;50.960;6.830;2023-04-16T01:37:50;7.60;95.90
14733;DHT22;7457;50.960;6.830;2023-04-16T01:40:16;7.60;95.80
14733;DHT22;7457;50.960;6.830;2023-04-16T01:42:42;7.60;95.80
14733;DHT22;7457;50.960;6.830;2023-04-16T01:45:08;7.60;95.80
14733;DHT22;7457;50.960;6.830;2023-04-16T01:47:33;7.60;95.60
14733;DHT22;7457;50.960;6.830;2023-04-16T01:50:00;7.60;96.00
14733;DHT22;7457;50.960;6.830;2023-04-16T01:52:26;7.50;96.10
14733;DHT22;7457;50.960;6.830;2023-04-16T01:54:51;7.50;96.00
14733;DHT22;7457;50.960;6.830;2023-04-16T01:57:17;7.50;96.10
14733;DHT22;7457;50.960;6.830;2023-04-16T01:59:42;7.50;96.10
14733;DHT22;7457;50.960;6.830;2023-04-16T02:02:09;7.50;96.00
14733;DHT22;7457;50.960;6.830;2023-04-16T02:04:44;7.50;96.10
14733;DHT22;7457;50.960;6.830;2023-04-16T02:07:11;7.50;96.00
14733;DHT22;7457;50.960;6.830;2023-04-16T02:09:38;7.50;96.10
14733;DHT22;7457;50.960;6.830;2023-04-16T02:12:04;7.50;96.00
14733;DHT22;7457;50.960;6.830;2023-04-16T02:14:31;7.50;95.90
14733;DHT22;7457;50.960;6.830;2023-04-16T02:16:57;7.50;96.00
14733;DHT22;7457;50.960;6.830;2023-04-16T02:19:23;7.50;96.20
14733;DHT22;7457;50.960;6.830;2023-04-16T02:21:50;7.50;96.10
14733;DHT22;7457;50.960;6.830;2023-04-16T02:24:16;7.50;96.20
14733;DHT22;7457;50.960;6.830;2023-04-16T02:26:42;7.50;96.20
14733;DHT22;7457;50.960;6.830;2023-04-16T02:29:08;7.50;96.30
14733;DHT22;7457;50.960;6.830;2023-04-16T02:31:34;7.50;96.50
14733;DHT22;7457;50.960;6.830;2023-04-16T02:34:00;7.50;96.40
14733;DHT22;7457;50.960;6.830;2023-04-16T02:36:25;7.50;96.20
14733;DHT22;7457;50.960;6.830;2023-04-16T02:38:52;7.50;96.20
14733;DHT22;7457;50.960;6.830;2023-04-16T02:41:17;7.50;96.30
14733;DHT22;7457;50.960;6.830;2023-04-16T02:43:43;7.60;96.20
14733;DHT22;7457;50.960;6.830;2023-04-16T02:46:09;7.60;96.20
14733;DHT22;7457;50.960;6.830;2023-04-16T02:48:34;7.60;96.30
14733;DHT22;7457;50.960;6.830;2023-04-16T02:51:00;7.60;96.40
14733;DHT22;7457;50.960;6.830;2023-04-16T02:53:26;7.60;96.30
14733;DHT22;7457;50.960;6.830;2023-04-16T02:55:53;7.50;96.30
14733;DHT22;7457;50.960;6.830;2023-04-16T02:58:24;7.50;96.20
14733;DHT22;7457;50.960;6.830;2023-04-16T03:00:50;7.50;96.20
14733;DHT22;7457;50.960;6.830;2023-04-16T03:03:16;7.50;96.40
14733;DHT22;7457;50.960;6.830;2023-04-16T03:05:42;7.50;96.50
14733;DHT22;7457;50.960;6.830;2023-04-16T03:08:08;7.50;96.40
14733;DHT22;7457;50.960;6.830;2023-04-16T03:10:34;7.50;96.50
14733;DHT22;7457;50.960;6.830;2023-04-16T03:13:00;7.50;96.50
14733;DHT22;7457;50.960;6.830;2023-04-16T03:15:26;7.50;96.50
14733;DHT22;7457;50.960;6.830;2023-04-16T03:17:52;7.50;96.60
14733;DHT22;7457;50.960;6.830;2023-04-16T03:20:18;7.50;96.60
14733;DHT22;7457;50.960;6.830;2023-04-16T03:22:44;7.50;96.70
14733;DHT22;7457;50.960;6.830;2023-04-16T03:25:10;7.50;96.60
14733;DHT22;7457;50.960;6.830;2023-04-16T03:27:36;7.50;96.70
14733;DHT22;7457;50.960;6.830;2023-04-16T03:30:07;7.50;97.00
14733;DHT22;7457;50.960;6.830;2023-04-16T03:32:33;7.50;97.10
14733;DHT22;7457;50.960;6.830;2023-04-16T03:34:59;7.50;96.90
14733;DHT22;7457;50.960;6.830;2023-04-16T03:37:24;7.50;97.00
14733;DHT22;7457;50.960;6.830;2023-04-16T03:39:50;7.50;97.10
14733;DHT22;7457;50.960;6.830;2023-04-16T03:42:16;7.50;97.10
14733;DHT22;7457;50.960;6.830;2023-04-16T03:44:41;7.50;97.20
14733;DHT22;7457;50.960;6.830;2023-04-16T03:47:07;7.50;97.20
14733;DHT22;7457;50.960;6.830;2023-04-16T03:49:33;7.50;97.30
14733;DHT22;7457;50.960;6.830;2023-04-16T03:51:58;7.50;97.30
14733;DHT22;7457;50.960;6.830;2023-04-16T03:54:24;7.50;97.20
14733;DHT22;7457;50.960;6.830;2023-04-16T03:56:50;7.50;97.30
14733;DHT22;7457;50.960;6.830;2023-04-16T03:59:16;7.50;97.50
14733;DHT22;7457;50.960;6.830;2023-04-16T04:01:42;7.50;97.50
14733;DHT22;7457;50.960;6.830;2023-04-16T04:04:08;7.50;97.80
14733;DHT22;7457;50.960;6.830;2023-04-16T04:06:34;7.50;97.60
14733;DHT22;7457;50.960;6.830;2023-04-16T04:09:00;7.50;97.60
14733;DHT22;7457;50.960;6.830;2023-04-16T04:11:25;7.50;97.60
14733;DHT22;7457;50.960;6.830;2023-04-16T04:13:51;7.50;97.80
14733;DHT22;7457;50.960;6.830;2023-04-16T04:16:17;7.50;97.60
14733;DHT22;7457;50.960;6.830;2023-04-16T04:18:42;7.50;97.80
14733;DHT22;7457;50.960;6.830;2023-04-16T04:21:08;7.50;97.70
14733;DHT22;7457;50.960;6.830;2023-04-16T04:23:35;7.50;97.70
14733;DHT22;7457;50.960;6.830;2023-04-16T04:26:00;7.50;97.70
14733;DHT22;7457;50.960;6.830;2023-04-16T04:28:33;7.50;97.80
14733;DHT22;7457;50.960;6.830;2023-04-16T04:31:00;7.50;97.80
14733;DHT22;7457;50.960;6.830;2023-04-16T04:33:26;7.50;97.70
14733;DHT22;7457;50.960;6.830;2023-04-16T04:35:52;7.50;97.80
14733;DHT22;7457;50.960;6.830;2023-04-16T04:38:18;7.60;97.90
14733;DHT22;7457;50.960;6.830;2023-04-16T04:40:44;7.50;98.00
14733;DHT22;7457;50.960;6.830;2023-04-16T04:43:11;7.60;97.90
14733;DHT22;7457;50.960;6.830;2023-04-16T04:45:36;7.60;97.90
14733;DHT22;7457;50.960;6.830;2023-04-16T04:48:02;7.60;98.00
14733;DHT22;7457;50.960;6.830;2023-04-16T04:50:28;7.60;98.00
14733;DHT22;7457;50.960;6.830;2023-04-16T04:52:54;7.60;97.90
14733;DHT22;7457;50.960;6.830;2023-04-16T04:55:19;7.60;98.30
14733;DHT22;7457;50.960;6.830;2023-04-16T04:57:45;7.60;98.30
14733;DHT22;7457;50.960;6.830;2023-04-16T05:00:11;7.60;98.30
14733;DHT22;7457;50.960;6.830;2023-04-16T05:02:36;7.60;98.40
14733;DHT22;7457;50.960;6.830;2023-04-16T05:05:03;7.60;98.30
14733;DHT22;7457;50.960;6.830;2023-04-16T05:07:29;7.60;98.30
14733;DHT22;7457;50.960;6.830;2023-04-16T05:09:55;7.60;98.40
14733;DHT22;7457;50.960;6.830;2023-04-16T05:12:21;7.70;98.50
14733;DHT22;7457;50.960;6.830;2023-04-16T05:14:46;7.70;98.60
14733;DHT22;7457;50.960;6.830;2023-04-16T05:17:12;7.70;98.70
14733;DHT22;7457;50.960;6.830;2023-04-16T05:19:37;7.70;98.70
14733;DHT22;7457;50.960;6.830;2023-04-16T05:22:03;7.60;98.90
14733;DHT22;7457;50.960;6.830;2023-04-16T05:24:29;7.70;98.80
14733;DHT22;7457;50.960;6.830;2023-04-16T05:26:55;7.70;98.80
14733;DHT22;7457;50.960;6.830;2023-04-16T05:29:21;7.70;99.00
14733;DHT22;7457;50.960;6.830;2023-04-16T05:31:47;7.70;98.90
14733;DHT22;7457;50.960;6.830;2023-04-16T05:34:12;7.70;98.90
14733;DHT22;7457;50.960;6.830;2023-04-16T05:36:38;7.70;99.00
14733;DHT22;7457;50.960;6.830;2023-04-16T05:39:04;7.70;99.20
14733;DHT22;7457;50.960;6.830;2023-04-16T05:41:30;7.70;99.10
14733;DHT22;7457;50.960;6.830;2023-04-16T05:43:56;7.80;99.10
14733;DHT22;7457;50.960;6.830;2023-04-16T05:46:21;7.80;99.50
14733;DHT22;7457;50.960;6.830;2023-04-16T05:48:47;7.80;99.40
14733;DHT22;7457;50.960;6.830;2023-04-16T05:51:13;7.80;99.50
14733;DHT22;7457;50.960;6.830;2023-04-16T05:53:38;7.90;99.40
14733;DHT22;7457;50.960;6.830;2023-04-16T05:56:04;7.90;99.40
14733;DHT22;7457;50.960;6.830;2023-04-16T05:58:30;7.90;99.50
14733;DHT22;7457;50.960;6.830;2023-04-16T06:00:55;7.90;99.50
14733;DHT22;7457;50.960;6.830;2023-04-16T06:03:21;7.90;99.60
14733;DHT22;7457;50.960;6.830;2023-04-16T06:05:47;7.90;99.60
14733;DHT22;7457;50.960;6.830;2023-04-16T06:08:12;8.00;99.70
14733;DHT22;7457;50.960;6.830;2023-04-16T06:10:38;7.90;99.90
14733;DHT22;7457;50.960;6.830;2023-04-16T06:13:04;7.90;99.70
14733;DHT22;7457;50.960;6.830;2023-04-16T06:15:29;8.00;99.90
14733;DHT22;7457;50.960;6.830;2023-04-16T06:17:55;8.00;100.00
14733;DHT22;7457;50.960;6.830;2023-04-16T06:20:21;8.00;100.00
14733;DHT22;7457;50.960;6.830;2023-04-16T06:22:47;7.90;100.00
14733;DHT22;7457;50.960;6.830;2023-04-16T06:25:13;7.90;100.00
14733;DHT22;7457;50.960;6.830;2023-04-16T06:27:38;7.90;100.00
14733;DHT22;7457;50.960;6.830;2023-04-16T06:30:09;7.90;100.00
14733;DHT22;7457;50.960;6.830;2023-04-16T06:32:35;8.00;100.00
14733;DHT22;7457;50.960;6.830;2023-04-16T06:35:01;7.90;100.00
14733;DHT22;7457;50.960;6.830;2023-04-16T06:37:26;7.90;100.00
14733;DHT22;7457;50.960;6.830;2023-04-16T06:39:52;7.90;100.00
14733;DHT22;7457;50.960;6.830;2023-04-16T06:42:18;7.90;100.00
14733;DHT22;7457;50.960;6.830;2023-04-16T06:44:45;7.90;100.00
14733;DHT22;7457;50.960;6.830;2023-04-16T06:47:10;8.00;100.00
14733;DHT22;7457;50.960;6.830;2023-04-16T06:49:36;8.00;100.00
14733;DHT22;7457;50.960;6.830;2023-04-16T06:52:03;8.00;100.00
14733;DHT22;7457;50.960;6.830;2023-04-16T06:54:29;8.00;100.00
14733;DHT22;7457;50.960;6.830;2023-04-16T06:56:54;8.00;100.00
14733;DHT22;7457;50.960;6.830;2023-04-16T06:59:20;8.00;100.00
14733;DHT22;7457;50.960;6.830;2023-04-16T07:01:46;8.00;100.00
14733;DHT22;7457;50.960;6.830;2023-04-16T07:04:11;8.00;100.00
14733;DHT22;7457;50.960;6.830;2023-04-16T07:06:37;8.00;100.00
14733;DHT22;7457;50.960;6.830;2023-04-16T07:09:03;8.00;100.00
14733;DHT22;7457;50.960;6.830;2023-04-16T07:11:29;8.00;100.00
14733;DHT22;7457;50.960;6.830;2023-04-16T07:13:54;8.00;100.00
14733;DHT22;7457;50.960;6.830;2023-04-16T07:16:22;8.00;100.00
14733;DHT22;7457;50.960;6.830;2023-04-16T07:18:47;8.10;100.00
14733;DHT22;7457;50.960;6.830;2023-04-16T07:21:13;8.10;100.00
14733;DHT22;7457;50.960;6.830;2023-04-16T07:23:39;8.10;100.00
14733;DHT22;7457;50.960;6.830;2023-04-16T07:26:04;8.10;100.00
14733;DHT22;7457;50.960;6.830;2023-04-16T07:28:30;8.10;100.00
14733;DHT22;7457;50.960;6.830;2023-04-16T07:30:56;8.10;100.00
14733;DHT22;7457;50.960;6.830;2023-04-16T07:33:21;8.20;100.00
14733;DHT22;7457;50.960;6.830;2023-04-16T07:35:47;8.20;100.00
14733;DHT22;7457;50.960;6.830;2023-04-16T07:38:13;8.20;100.00
14733;DHT22;7457;50.960;6.830;2023-04-16T07:40:39;8.20;100.00
14733;DHT22;7457;50.960;6.830;2023-04-16T07:43:05;8.20;100.00
14733;DHT22;7457;50.960;6.830;2023-04-16T07:45:31;8.20;100.00
14733;DHT22;7457;50.960;6.830;2023-04-16T07:47:56;8.30;100.00
14733;DHT22;7457;50.960;6.830;2023-04-16T07:50:22;8.30;100.00
14733;DHT22;7457;50.960;6.830;2023-04-16T07:52:48;8.30;100.00
14733;DHT22;7457;50.960;6.830;2023-04-16T07:55:13;8.40;100.00
14733;DHT22;7457;50.960;6.830;2023-04-16T07:57:39;8.40;100.00
14733;DHT22;7457;50.960;6.830;2023-04-16T08:00:06;8.40;100.00
14733;DHT22;7457;50.960;6.830;2023-04-16T08:02:32;8.40;100.00
14733;DHT22;7457;50.960;6.830;2023-04-16T08:04:59;8.50;100.00
14733;DHT22;7457;50.960;6.830;2023-04-16T08:07:24;8.50;100.00
14733;DHT22;7457;50.960;6.830;2023-04-16T08:09:51;8.60;100.00
14733;DHT22;7457;50.960;6.830;2023-04-16T08:12:17;8.70;100.00
14733;DHT22;7457;50.960;6.830;2023-04-16T08:14:43;8.80;100.00
14733;DHT22;7457;50.960;6.830;2023-04-16T08:17:10;8.90;100.00
14733;DHT22;7457;50.960;6.830;2023-04-16T08:19:36;9.00;100.00
14733;DHT22;7457;50.960;6.830;2023-04-16T08:22:02;9.00;100.00
14733;DHT22;7457;50.960;6.830;2023-04-16T08:24:27;9.00;100.00
14733;DHT22;7457;50.960;6.830;2023-04-16T08:26:53;9.10;100.00
14733;DHT22;7457;50.960;6.830;2023-04-16T08:29:19;9.20;100.00
14733;DHT22;7457;50.960;6.830;2023-04-16T08:31:45;9.50;100.00
14733;DHT22;7457;50.960;6.830;2023-04-16T08:34:12;9.80;100.00
14733;DHT22;7457;50.960;6.830;2023-04-16T08:36:38;10.00;100.00
14733;DHT22;7457;50.960;6.830;2023-04-16T08:39:05;10.10;100.00
14733;DHT22;7457;50.960;6.830;2023-04-16T08:41:32;10.10;99.50
14733;DHT22;7457;50.960;6.830;2023-04-16T08:44:07;10.10;99.20
14733;DHT22;7457;50.960;6.830;2023-04-16T08:46:36;10.10;99.40
14733;DHT22;7457;50.960;6.830;2023-04-16T08:49:06;10.20;99.70
14733;DHT22;7457;50.960;6.830;2023-04-16T08:51:35;10.20;99.30
14733;DHT22;7457;50.960;6.830;2023-04-16T08:54:04;10.30;98.90
14733;DHT22;7457;50.960;6.830;2023-04-16T08:56:30;10.40;98.50
14733;DHT22;7457;50.960;6.830;2023-04-16T08:59:00;10.40;98.20
14733;DHT22;7457;50.960;6.830;2023-04-16T09:01:31;10.40;97.50
14733;DHT22;7457;50.960;6.830;2023-04-16T09:03:58;10.40;97.50
14733;DHT22;7457;50.960;6.830;2023-04-16T09:06:27;10.40;97.10
14733;DHT22;7457;50.960;6.830;2023-04-16T09:08:53;10.30;96.80
14733;DHT22;7457;50.960;6.830;2023-04-16T09:11:19;10.30;96.70
14733;DHT22;7457;50.960;6.830;2023-04-16T09:13:46;10.30;96.80
14733;DHT22;7457;50.960;6.830;2023-04-16T09:16:12;10.30;97.00
14733;DHT22;7457;50.960;6.830;2023-04-16T09:18:38;10.40;96.90
14733;DHT22;7457;50.960;6.830;2023-04-16T09:21:04;10.40;96.60
14733;DHT22;7457;50.960;6.830;2023-04-16T09:23:32;10.50;96.50
14733;DHT22;7457;50.960;6.830;2023-04-16T09:25:58;10.60;96.30
14733;DHT22;7457;50.960;6.830;2023-04-16T09:28:44;10.70;96.20
14733;DHT22;7457;50.960;6.830;2023-04-16T09:31:14;10.80;95.80
14733;DHT22;7457;50.960;6.830;2023-04-16T09:33:41;10.90;95.70
14733;DHT22;7457;50.960;6.830;2023-04-16T09:36:09;11.10;95.10
14733;DHT22;7457;50.960;6.830;2023-04-16T09:38:46;11.20;95.00
14733;DHT22;7457;50.960;6.830;2023-04-16T09:41:13;11.30;94.60
14733;DHT22;7457;50.960;6.830;2023-04-16T09:43:47;11.40;93.70
14733;DHT22;7457;50.960;6.830;2023-04-16T09:46:13;11.50;92.90
14733;DHT22;7457;50.960;6.830;2023-04-16T09:48:48;11.60;92.70
14733;DHT22;7457;50.960;6.830;2023-04-16T09:51:18;11.60;92.00
14733;DHT22;7457;50.960;6.830;2023-04-16T09:53:44;11.60;91.60
14733;DHT22;7457;50.960;6.830;2023-04-16T09:56:11;11.70;91.70
14733;DHT22;7457;50.960;6.830;2023-04-16T09:58:37;11.70;91.00
14733;DHT22;7457;50.960;6.830;2023-04-16T10:03:29;11.60;90.40
14733;DHT22;7457;50.960;6.830;2023-04-16T10:06:20;11.60;90.50
14733;DHT22;7457;50.960;6.830;2023-04-16T10:08:50;11.60;90.40
14733;DHT22;7457;50.960;6.830;2023-04-16T10:11:25;11.50;90.00
14733;DHT22;7457;50.960;6.830;2023-04-16T10:13:51;11.40;89.60
14733;DHT22;7457;50.960;6.830;2023-04-16T10:16:17;11.30;90.00
14733;DHT22;7457;50.960;6.830;2023-04-16T10:18:46;11.30;90.20
14733;DHT22;7457;50.960;6.830;2023-04-16T10:21:11;11.30;90.90
14733;DHT22;7457;50.960;6.830;2023-04-16T10:23:42;11.30;90.90
14733;DHT22;7457;50.960;6.830;2023-04-16T10:26:11;11.40;90.80
14733;DHT22;7457;50.960;6.830;2023-04-16T10:28:38;11.50;90.60
14733;DHT22;7457;50.960;6.830;2023-04-16T10:31:09;11.50;90.40
14733;DHT22;7457;50.960;6.830;2023-04-16T10:33:41;11.60;90.30
14733;DHT22;7457;50.960;6.830;2023-04-16T10:36:12;11.60;90.00
14733;DHT22;7457;50.960;6.830;2023-04-16T10:38:51;11.70;89.30
14733;DHT22;7457;50.960;6.830;2023-04-16T10:41:19;11.70;89.30
14733;DHT22;7457;50.960;6.830;2023-04-16T10:43:51;11.70;89.10
14733;DHT22;7457;50.960;6.830;2023-04-16T10:46:17;11.70;89.00
14733;DHT22;7457;50.960;6.830;2023-04-16T10:48:44;11.70;89.10
14733;DHT22;7457;50.960;6.830;2023-04-16T10:51:42;11.70;88.90
14733;DHT22;7457;50.960;6.830;2023-04-16T10:56:44;11.70;88.00
14733;DHT22;7457;50.960;6.830;2023-04-16T10:59:17;11.70;87.90
14733;DHT22;7457;50.960;6.830;2023-04-16T11:02:08;11.60;87.60
14733;DHT22;7457;50.960;6.830;2023-04-16T11:04:37;11.50;87.60
14733;DHT22;7457;50.960;6.830;2023-04-16T11:17:47;11.60;88.50
14733;DHT22;7457;50.960;6.830;2023-04-16T11:20:17;11.80;88.50
14733;DHT22;7457;50.960;6.830;2023-04-16T11:22:54;12.00;88.30
14733;DHT22;7457;50.960;6.830;2023-04-16T11:25:40;12.10;87.80
14733;DHT22;7457;50.960;6.830;2023-04-16T11:28:16;12.20;87.40
14733;DHT22;7457;50.960;6.830;2023-04-16T11:30:41;12.40;87.20
14733;DHT22;7457;50.960;6.830;2023-04-16T11:33:10;12.60;86.50
14733;DHT22;7457;50.960;6.830;2023-04-16T11:35:37;12.80;85.90
14733;DHT22;7457;50.960;6.830;2023-04-16T11:38:06;12.90;84.90
14733;DHT22;7457;50.960;6.830;2023-04-16T11:40:34;13.00;84.10
14733;DHT22;7457;50.960;6.830;2023-04-16T11:43:12;13.00;83.80
14733;DHT22;7457;50.960;6.830;2023-04-16T11:45:37;13.00;83.50
14733;DHT22;7457;50.960;6.830;2023-04-16T11:48:03;13.00;83.60
14733;DHT22;7457;50.960;6.830;2023-04-16T11:50:29;13.00;84.10
14733;DHT22;7457;50.960;6.830;2023-04-16T11:52:56;13.10;84.00
14733;DHT22;7457;50.960;6.830;2023-04-16T11:55:42;13.10;83.20
14733;DHT22;7457;50.960;6.830;2023-04-16T11:58:13;13.10;82.60
14733;DHT22;7457;50.960;6.830;2023-04-16T12:00:41;13.00;82.70
14733;DHT22;7457;50.960;6.830;2023-04-16T12:03:07;12.90;82.80
14733;DHT22;7457;50.960;6.830;2023-04-16T12:05:37;12.80;82.80
14733;DHT22;7457;50.960;6.830;2023-04-16T12:08:05;12.70;82.60
14733;DHT22;7457;50.960;6.830;2023-04-16T12:10:32;12.60;82.80
14733;DHT22;7457;50.960;6.830;2023-04-16T12:13:15;12.60;82.90
14733;DHT22;7457;50.960;6.830;2023-04-16T12:18:16;12.60;83.20
14733;DHT22;7457;50.960;6.830;2023-04-16T12:20:43;12.60;83.20
14733;DHT22;7457;50.960;6.830;2023-04-16T12:23:28;12.70;82.50
14733;DHT22;7457;50.960;6.830;2023-04-16T12:26:06;12.80;81.80
14733;DHT22;7457;50.960;6.830;2023-04-16T12:28:37;12.70;81.40
14733;DHT22;7457;50.960;6.830;2023-04-16T12:31:04;12.70;81.70
14733;DHT22;7457;50.960;6.830;2023-04-16T12:33:30;12.70;82.10
14733;DHT22;7457;50.960;6.830;2023-04-16T12:35:56;12.80;82.30
14733;DHT22;7457;50.960;6.830;2023-04-16T12:38:21;12.90;82.70
14733;DHT22;7457;50.960;6.830;2023-04-16T12:40:47;13.10;82.60
14733;DHT22;7457;50.960;6.830;2023-04-16T12:43:13;13.40;81.90
14733;DHT22;7457;50.960;6.830;2023-04-16T12:45:39;13.60;81.00
14733;DHT22;7457;50.960;6.830;2023-04-16T12:48:05;13.80;80.40
14733;DHT22;7457;50.960;6.830;2023-04-16T12:50:31;13.90;79.30
14733;DHT22;7457;50.960;6.830;2023-04-16T12:52:57;13.90;78.80
14733;DHT22;7457;50.960;6.830;2023-04-16T12:55:22;13.90;78.70
14733;DHT22;7457;50.960;6.830;2023-04-16T12:57:49;13.90;78.50
14733;DHT22;7457;50.960;6.830;2023-04-16T13:00:17;13.80;78.70
14733;DHT22;7457;50.960;6.830;2023-04-16T13:02:43;13.80;78.50
14733;DHT22;7457;50.960;6.830;2023-04-16T13:05:08;13.80;77.60
14733;DHT22;7457;50.960;6.830;2023-04-16T13:07:34;13.80;77.40
14733;DHT22;7457;50.960;6.830;2023-04-16T13:10:00;13.80;76.80
14733;DHT22;7457;50.960;6.830;2023-04-16T13:12:26;13.70;76.80
14733;DHT22;7457;50.960;6.830;2023-04-16T13:14:52;13.60;76.90
14733;DHT22;7457;50.960;6.830;2023-04-16T13:17:18;13.60;76.90
14733;DHT22;7457;50.960;6.830;2023-04-16T13:19:43;13.50;77.10
14733;DHT22;7457;50.960;6.830;2023-04-16T13:22:10;13.40;77.30
14733;DHT22;7457;50.960;6.830;2023-04-16T13:24:35;13.30;77.50
14733;DHT22;7457;50.960;6.830;2023-04-16T13:27:01;13.30;77.50
14733;DHT22;7457;50.960;6.830;2023-04-16T13:29:27;13.30;77.30
14733;DHT22;7457;50.960;6.830;2023-04-16T13:31:54;13.30;77.30
14733;DHT22;7457;50.960;6.830;2023-04-16T13:34:20;13.30;77.30
14733;DHT22;7457;50.960;6.830;2023-04-16T13:36:45;13.20;77.00
14733;DHT22;7457;50.960;6.830;2023-04-16T13:39:11;13.20;77.20
14733;DHT22;7457;50.960;6.830;2023-04-16T13:41:37;13.20;77.50
14733;DHT22;7457;50.960;6.830;2023-04-16T13:44:03;13.20;77.60
14733;DHT22;7457;50.960;6.830;2023-04-16T13:46:28;13.20;77.40
14733;DHT22;7457;50.960;6.830;2023-04-16T13:48:54;13.20;76.80
14733;DHT22;7457;50.960;6.830;2023-04-16T13:51:20;13.20;76.90
14733;DHT22;7457;50.960;6.830;2023-04-16T13:53:46;13.20;77.20
14733;DHT22;7457;50.960;6.830;2023-04-16T13:56:12;13.30;77.60
14733;DHT22;7457;50.960;6.830;2023-04-16T13:58:38;13.30;77.60
14733;DHT22;7457;50.960;6.830;2023-04-16T14:01:04;13.50;77.30
14733;DHT22;7457;50.960;6.830;2023-04-16T14:03:30;13.60;76.80
14733;DHT22;7457;50.960;6.830;2023-04-16T14:06:00;13.70;76.50
14733;DHT22;7457;50.960;6.830;2023-04-16T14:08:26;13.80;76.10
14733;DHT22;7457;50.960;6.830;2023-04-16T14:10:52;13.90;75.90
14733;DHT22;7457;50.960;6.830;2023-04-16T14:13:17;13.90;75.70
14733;DHT22;7457;50.960;6.830;2023-04-16T14:15:43;14.00;74.90
14733;DHT22;7457;50.960;6.830;2023-04-16T14:18:09;14.00;74.70
14733;DHT22;7457;50.960;6.830;2023-04-16T14:20:34;14.00;74.70
14733;DHT22;7457;50.960;6.830;2023-04-16T14:23:00;14.10;74.40
14733;DHT22;7457;50.960;6.830;2023-04-16T14:25:26;14.10;74.00
14733;DHT22;7457;50.960;6.830;2023-04-16T14:27:52;14.10;73.90
14733;DHT22;7457;50.960;6.830;2023-04-16T14:30:18;14.00;73.90
14733;DHT22;7457;50.960;6.830;2023-04-16T14:32:43;14.00;74.00
14733;DHT22;7457;50.960;6.830;2023-04-16T14:35:09;14.00;74.30
14733;DHT22;7457;50.960;6.830;2023-04-16T14:37:35;14.10;74.40
14733;DHT22;7457;50.960;6.830;2023-04-16T14:40:02;14.20;74.40
14733;DHT22;7457;50.960;6.830;2023-04-16T14:42:32;14.30;74.20
14733;DHT22;7457;50.960;6.830;2023-04-16T14:44:57;14.40;74.10
14733;DHT22;7457;50.960;6.830;2023-04-16T14:47:23;14.60;74.00
14733;DHT22;7457;50.960;6.830;2023-04-16T14:49:49;14.70;73.70
14733;DHT22;7457;50.960;6.830;2023-04-16T14:52:15;14.80;73.10
14733;DHT22;7457;50.960;6.830;2023-04-16T14:54:41;14.80;72.80
14733;DHT22;7457;50.960;6.830;2023-04-16T14:57:07;14.90;72.70
14733;DHT22;7457;50.960;6.830;2023-04-16T14:59:32;15.00;72.90
14733;DHT22;7457;50.960;6.830;2023-04-16T15:01:58;15.10;72.10
14733;DHT22;7457;50.960;6.830;2023-04-16T15:04:24;15.10;71.70
14733;DHT22;7457;50.960;6.830;2023-04-16T15:06:50;15.20;71.80
14733;DHT22;7457;50.960;6.830;2023-04-16T15:09:16;15.20;71.00
14733;DHT22;7457;50.960;6.830;2023-04-16T15:11:41;15.30;70.60
14733;DHT22;7457;50.960;6.830;2023-04-16T15:14:07;15.30;70.50
14733;DHT22;7457;50.960;6.830;2023-04-16T15:16:32;15.20;70.10
14733;DHT22;7457;50.960;6.830;2023-04-16T15:18:58;15.20;69.80
14733;DHT22;7457;50.960;6.830;2023-04-16T15:21:24;15.10;69.30
14733;DHT22;7457;50.960;6.830;2023-04-16T15:23:51;15.00;69.00
14733;DHT22;7457;50.960;6.830;2023-04-16T15:26:16;14.90;69.00
14733;DHT22;7457;50.960;6.830;2023-04-16T15:28:42;14.80;68.70
14733;DHT22;7457;50.960;6.830;2023-04-16T15:31:08;14.70;69.00
14733;DHT22;7457;50.960;6.830;2023-04-16T15:33:34;14.70;68.90
14733;DHT22;7457;50.960;6.830;2023-04-16T15:35:59;14.60;69.10
14733;DHT22;7457;50.960;6.830;2023-04-16T15:38:25;14.50;69.30
14733;DHT22;7457;50.960;6.830;2023-04-16T15:40:51;14.50;69.50
14733;DHT22;7457;50.960;6.830;2023-04-16T15:43:16;14.40;69.70
14733;DHT22;7457;50.960;6.830;2023-04-16T15:45:42;14.40;69.90
14733;DHT22;7457;50.960;6.830;2023-04-16T15:48:08;14.30;70.00
14733;DHT22;7457;50.960;6.830;2023-04-16T15:50:33;14.30;70.10
14733;DHT22;7457;50.960;6.830;2023-04-16T15:52:59;14.30;69.90
14733;DHT22;7457;50.960;6.830;2023-04-16T15:55:25;14.30;69.80
14733;DHT22;7457;50.960;6.830;2023-04-16T15:57:51;14.20;69.40
14733;DHT22;7457;50.960;6.830;2023-04-16T16:00:17;14.20;69.50
14733;DHT22;7457;50.960;6.830;2023-04-16T16:02:44;14.10;69.60
14733;DHT22;7457;50.960;6.830;2023-04-16T16:05:11;14.10;69.80
14733;DHT22;7457;50.960;6.830;2023-04-16T16:07:38;14.10;70.00